Terminal Aerodrome Forecast
Issued by NWS Wilmington, OH

Current Version | Previous Version | Text Only | Print | Product List | Glossary On
Versions: 1 2 3 4 5 6 7 8 9 10 11 12 13 14 15 16 17 18 19 20 21 22 23
000 FTUS41 KILN 250500 TAFCMH TAF KCMH 250520Z 2506/2606 22005KT P6SM SCT040 BKN100 FM251500 25012G18KT P6SM BKN035 FM252100 28012G18KT P6SM SCT040 FM260100 30010KT P6SM SKC=

USA.gov is the U.S. government's official web portal to all federal, state and local government web resources and services.